Time;durP1;ratioP1;P1;durP2;ratioP2;P2;SDS_P1;SDS_P2;PMS_P1;PMS_P2;Temp;Humidity;BMP_temperature;BMP_pressure;BME280_temperature;BME280_humidity;BME280_pressure;Samples;Min_cycle;Max_cycle;Signal;HPM_P1;HPM_P2
2021/01/27 00:00:19;;;;;;;40.30;22.60;;;51.40;2227.20;;;;;;4942068;29;20028;-86
2021/01/27 00:02:45;;;;;;;39.97;22.00;;;51.20;2227.20;;;;;;4942545;29;20027;-86
2021/01/27 00:05:18;;;;;;;93.90;46.08;;;51.20;2227.20;;;;;;4941792;29;20035;-86
2021/01/27 00:07:44;;;;;;;63.00;33.03;;;51.20;2227.20;;;;;;4942611;29;20455;-88
2021/01/27 00:10:12;;;;;;;42.28;25.77;;;51.30;2227.20;;;;;;4942055;29;20028;-86
2021/01/27 00:12:38;;;;;;;50.83;31.92;;;51.30;2227.20;;;;;;4943127;29;20066;-86
2021/01/27 00:15:14;;;;;;;52.63;31.52;;;51.40;2227.20;;;;;;4943510;28;20031;-86
2021/01/27 00:17:40;;;;;;;35.25;20.80;;;51.30;2227.20;;;;;;4958628;29;20032;-87
2021/01/27 00:20:09;;;;;;;39.13;24.73;;;51.30;2227.20;;;;;;4941812;29;20023;-86
2021/01/27 00:22:35;;;;;;;30.85;20.50;;;51.40;2227.20;;;;;;4942433;29;20023;-86
2021/01/27 00:25:02;;;;;;;46.13;26.60;;;51.40;2227.20;;;;;;4942218;29;20393;-88
2021/01/27 00:27:28;;;;;;;41.65;25.13;;;51.40;2227.20;;;;;;4942774;29;20373;-86
2021/01/27 00:29:54;;;;;;;30.58;18.98;;;51.30;2227.20;;;;;;4941563;29;20027;-87
2021/01/27 00:32:20;;;;;;;24.70;14.70;;;51.40;2227.20;;;;;;4941063;29;20106;-87
2021/01/27 00:34:45;;;;;;;27.45;17.33;;;51.30;2227.20;;;;;;4941444;29;20035;-86
2021/01/27 00:37:11;;;;;;;43.13;24.25;;;51.30;2227.20;;;;;;4941483;29;20038;-87
2021/01/27 00:39:37;;;;;;;49.17;25.55;;;51.30;2227.20;;;;;;4941016;29;20047;-87
2021/01/27 00:42:03;;;;;;;33.15;18.73;;;51.30;2227.20;;;;;;4940973;29;20134;-87
2021/01/27 00:44:29;;;;;;;35.97;19.65;;;51.30;2227.20;;;;;;4941073;28;20027;-85
2021/01/27 00:46:55;;;;;;;64.07;30.23;;;51.30;2227.20;;;;;;4940624;29;20042;-81
2021/01/27 00:49:21;;;;;;;38.15;19.83;;;51.20;2227.20;;;;;;4939961;29;20024;-86
2021/01/27 00:51:47;;;;;;;44.47;23.35;;;51.30;2227.20;;;;;;4940896;29;20380;-87
2021/01/27 00:54:13;;;;;;;64.05;34.65;;;51.30;2227.20;;;;;;4940787;29;20031;-88
2021/01/27 00:56:38;;;;;;;37.55;22.88;;;26.50;2201.60;;;;;;4941162;29;20027;-87
2021/01/27 00:59:04;;;;;;;28.05;17.50;;;51.20;2227.20;;;;;;4940412;29;20027;-87
2021/01/27 01:01:31;;;;;;;33.67;18.65;;;51.20;2227.20;;;;;;4941400;29;20027;-87
2021/01/27 01:03:57;;;;;;;30.27;16.92;;;26.50;2201.60;;;;;;4940939;29;20035;-88
2021/01/27 01:06:23;;;;;;;34.90;18.13;;;51.20;2227.20;;;;;;4940857;29;20387;-87
2021/01/27 01:08:49;;;;;;;46.30;22.50;;;26.50;2201.60;;;;;;4940731;29;20085;-88
2021/01/27 01:11:15;;;;;;;26.52;16.77;;;26.50;2201.60;;;;;;4940729;29;20030;-87
2021/01/27 01:13:40;;;;;;;31.98;18.88;;;26.50;2201.60;;;;;;4947023;28;20023;-87
2021/01/27 01:16:06;;;;;;;37.05;22.40;;;26.50;2201.60;;;;;;4960318;28;20038;-86
2021/01/27 01:18:32;;;;;;;41.97;23.45;;;26.50;2201.60;;;;;;4958561;28;20027;-86
2021/01/27 01:20:58;;;;;;;54.35;27.55;;;51.20;2227.20;;;;;;4959863;28;20027;-88
2021/01/27 01:23:24;;;;;;;59.20;29.67;;;51.20;2227.20;;;;;;4959692;28;20383;-86
2021/01/27 01:25:51;;;;;;;52.00;25.90;;;51.20;2227.20;;;;;;4959820;28;20030;-87
2021/01/27 01:28:17;;;;;;;27.25;17.27;;;51.20;2227.20;;;;;;4959398;28;20033;-87
2021/01/27 01:30:45;;;;;;;31.33;18.17;;;26.20;2201.60;;;;;;4959112;28;20069;-86
2021/01/27 01:33:20;;;;;;;27.13;17.17;;;51.30;2227.20;;;;;;4959263;28;20042;-87
2021/01/27 01:35:46;;;;;;;30.75;18.17;;;51.20;2227.20;;;;;;4959283;28;20035;-87
2021/01/27 01:38:13;;;;;;;31.27;19.05;;;51.30;2227.20;;;;;;4959953;28;20031;-86
2021/01/27 01:40:42;;;;;;;39.08;20.00;;;51.30;2227.20;;;;;;4977242;28;20379;-87
2021/01/27 01:43:27;;;;;;;41.33;22.00;;;51.20;2227.20;;;;;;4959253;28;20070;-89
2021/01/27 01:45:58;;;;;;;49.83;24.27;;;51.30;2227.20;;;;;;4952220;28;20039;-87
2021/01/27 01:48:47;;;;;;;34.47;19.48;;;51.30;2227.20;;;;;;4939712;29;20034;-87
2021/01/27 01:54:40;;;;;;;50.45;27.80;;;51.30;2227.20;;;;;;4956848;29;20035;-87
2021/01/27 01:57:28;;;;;;;31.90;18.10;;;51.30;2227.20;;;;;;4956439;29;20023;-86
2021/01/27 02:00:07;;;;;;;33.70;16.65;;;51.30;2227.20;;;;;;4939675;29;20051;-87
2021/01/27 02:02:37;;;;;;;26.20;16.75;;;51.20;2227.20;;;;;;4939208;29;20031;-86
2021/01/27 02:05:14;;;;;;;41.00;25.13;;;51.20;2227.20;;;;;;4939687;29;20035;-86
2021/01/27 02:07:41;;;;;;;43.58;27.33;;;51.20;2227.20;;;;;;4939390;29;20023;-86
2021/01/27 02:10:08;;;;;;;43.90;27.85;;;51.20;2227.20;;;;;;4939440;29;20027;-88
2021/01/27 02:15:46;;;;;;;28.52;17.70;;;51.20;2227.20;;;;;;4962873;28;20554;-90
2021/01/27 02:18:51;;;;;;;33.22;21.42;;;51.20;2227.20;;;;;;4958445;28;20386;-86
2021/01/27 02:21:37;;;;;;;44.47;29.67;;;51.30;2227.20;;;;;;4957578;28;20065;-86
2021/01/27 02:24:21;;;;;;;28.88;18.23;;;51.30;2227.20;;;;;;4958347;28;20106;-89
2021/01/27 02:26:47;;;;;;;35.30;23.35;;;51.20;2227.20;;;;;;4958331;28;20514;-88
2021/01/27 02:29:15;;;;;;;46.42;26.33;;;51.20;2227.20;;;;;;4958417;28;20058;-87
2021/01/27 02:51:26;;;;;;;35.47;18.75;;;26.40;2201.60;;;;;;4975627;28;20072;-87
2021/01/27 03:41:29;;;;;;;20.17;13.18;;;25.90;2201.60;;;;;;5006293;23;20086;-85
2021/01/27 03:50:56;;;;;;;38.37;20.50;;;26.00;2201.60;;;;;;5005035;23;20457;-88
2021/01/27 03:53:25;;;;;;;31.90;19.27;;;26.00;2201.60;;;;;;4976547;28;20041;-88
2021/01/27 04:26:50;;;;;;;32.00;18.63;;;25.80;2201.60;;;;;;5013975;23;20453;-87
2021/01/27 04:59:19;;;;;;;52.78;27.95;;;26.00;2201.60;;;;;;4996008;28;20116;-88
2021/01/27 05:02:24;;;;;;;72.18;40.92;;;26.00;2201.60;;;;;;4979206;28;20038;-87
2021/01/27 05:05:30;;;;;;;86.20;41.95;;;26.00;2201.60;;;;;;4978197;28;20030;-86
2021/01/27 05:07:59;;;;;;;44.40;23.95;;;26.00;2201.60;;;;;;4995660;28;20026;-87
2021/01/27 05:10:35;;;;;;;46.03;25.80;;;26.00;2201.60;;;;;;4979004;28;20053;-87
2021/01/27 05:16:21;;;;;;;31.75;20.95;;;26.20;2201.60;;;;;;4996580;28;20406;-87
2021/01/27 05:18:49;;;;;;;39.13;21.90;;;26.20;2201.60;;;;;;4978784;28;20027;-86
2021/01/27 05:21:40;;;;;;;38.78;24.08;;;26.10;2201.60;;;;;;4977336;28;20031;-87
2021/01/27 05:24:07;;;;;;;80.45;42.65;;;26.10;2201.60;;;;;;4978224;28;20026;-87
2021/01/27 05:26:57;;;;;;;43.78;26.00;;;26.00;2201.60;;;;;;4978489;28;20026;-87
2021/01/27 05:33:25;;;;;;;35.90;20.70;;;26.10;2201.60;;;;;;4996338;28;20033;-85
2021/01/27 05:42:38;;;;;;;67.93;36.22;;;26.10;2201.60;;;;;;4996720;28;20032;-86
2021/01/27 05:48:32;;;;;;;62.83;33.83;;;26.10;2201.60;;;;;;4996236;28;20061;-87
2021/01/27 05:51:29;;;;;;;40.35;25.23;;;26.20;2201.60;;;;;;4978762;28;20033;-89
2021/01/27 05:53:55;;;;;;;33.35;19.98;;;26.20;2201.60;;;;;;4977979;28;20022;-87
2021/01/27 05:56:23;;;;;;;50.17;28.30;;;26.30;2201.60;;;;;;4995678;28;20033;-88
2021/01/27 05:58:49;;;;;;;32.55;19.67;;;26.20;2201.60;;;;;;4978331;28;20390;-87
2021/01/27 06:01:55;;;;;;;56.95;29.38;;;26.20;2201.60;;;;;;4978004;28;20030;-86
2021/01/27 06:04:33;;;;;;;48.78;27.27;;;26.30;2201.60;;;;;;4993149;28;20034;-86
2021/01/27 06:07:19;;;;;;;50.72;22.58;;;26.20;2201.60;;;;;;4995164;28;20027;-87
2021/01/27 06:09:49;;;;;;;35.25;17.85;;;26.20;2201.60;;;;;;4978171;28;20033;-88
2021/01/27 06:13:08;;;;;;;46.15;24.05;;;26.20;2201.60;;;;;;4978047;28;20037;-88
2021/01/27 06:19:27;;;;;;;80.95;44.60;;;26.30;2201.60;;;;;;4995919;28;20048;-87
2021/01/27 06:35:26;;;;;;;56.22;32.88;;;26.20;2201.60;;;;;;4995917;28;20060;-86
2021/01/27 06:38:21;;;;;;;55.95;31.25;;;26.20;2201.60;;;;;;4991333;28;20072;-86
2021/01/27 06:47:33;;;;;;;69.43;40.15;;;26.20;2201.60;;;;;;4994452;28;20512;-86
2021/01/27 06:57:19;;;;;;;109.47;65.40;;;26.30;2201.60;;;;;;4994798;28;20409;-87
2021/01/27 07:10:34;;;;;;;99.93;56.03;;;26.40;2201.60;;;;;;4994764;28;20051;-88
2021/01/27 07:20:19;;;;;;;44.70;24.63;;;26.40;2201.60;;;;;;4993452;28;20036;-87
2021/01/27 07:23:38;;;;;;;34.65;23.38;;;26.40;2201.60;;;;;;4992595;28;20061;-87
2021/01/27 07:36:33;;;;;;;69.95;39.75;;;26.30;2201.60;;;;;;4999889;28;20044;-86
2021/01/27 07:39:39;;;;;;;118.70;60.65;;;26.30;2201.60;;;;;;4997808;28;20418;-86
2021/01/27 08:02:30;;;;;;;103.45;64.53;;;26.40;2201.60;;;;;;5036066;23;20073;-87
2021/01/27 08:05:01;;;;;;;85.80;53.70;;;26.50;2201.60;;;;;;4979930;28;20477;-89
2021/01/27 08:07:41;;;;;;;90.03;50.00;;;26.50;2201.60;;;;;;4979559;28;20027;-88
2021/01/27 08:10:44;;;;;;;57.83;36.47;;;26.50;2201.60;;;;;;4980394;28;20022;-89
2021/01/27 08:20:42;;;;;;;41.47;26.45;;;51.30;2227.20;;;;;;4998373;28;20045;-87
2021/01/27 08:27:23;;;;;;;48.45;38.10;;;51.40;2227.20;;;;;;5000406;28;20046;-88
2021/01/27 08:30:29;;;;;;;63.05;44.67;;;51.40;2227.20;;;;;;4990461;28;20042;-89
2021/01/27 08:33:41;;;;;;;50.60;32.85;;;51.50;2227.20;;;;;;4980283;28;20481;-86
2021/01/27 08:36:10;;;;;;;54.20;36.15;;;51.40;2227.20;;;;;;4957235;28;20045;-89
2021/01/27 08:38:40;;;;;;;66.03;39.08;;;51.60;2227.20;;;;;;4997309;28;20022;-89
2021/01/27 08:41:10;;;;;;;76.85;51.58;;;51.60;2227.20;;;;;;4979971;28;20022;-87
2021/01/27 08:43:41;;;;;;;119.90;87.35;;;51.40;2227.20;;;;;;4979965;28;20026;-86
2021/01/27 08:46:49;;;;;;;50.67;36.40;;;51.40;2227.20;;;;;;4979837;28;20034;-88
2021/01/27 08:52:41;;;;;;;71.88;44.97;;;51.60;2227.20;;;;;;4997286;28;20069;-87
2021/01/27 08:55:33;;;;;;;69.85;50.75;;;51.60;2227.20;;;;;;4979081;28;20029;-85
2021/01/27 08:58:22;;;;;;;85.17;59.13;;;51.60;2227.20;;;;;;4996610;28;20046;-85
2021/01/27 09:00:51;;;;;;;51.83;40.42;;;51.60;2227.20;;;;;;4979667;28;20822;-88
2021/01/27 09:03:47;;;;;;;57.00;40.25;;;51.70;2227.20;;;;;;4995497;28;20113;-88
2021/01/27 09:06:49;;;;;;;107.60;66.30;;;51.70;2227.20;;;;;;4995334;28;20057;-86
2021/01/27 09:09:23;;;;;;;92.60;55.90;;;51.80;2227.20;;;;;;4996011;28;20062;-86
2021/01/27 09:11:57;;;;;;;135.57;70.03;;;51.80;2227.20;;;;;;4995544;28;20026;-87
2021/01/27 09:14:22;;;;;;;83.30;50.95;;;51.80;2227.20;;;;;;4995905;28;20445;-89
2021/01/27 09:16:48;;;;;;;68.38;40.13;;;51.80;2227.20;;;;;;4993334;28;20054;-87
2021/01/27 09:19:18;;;;;;;63.28;41.88;;;51.80;2227.20;;;;;;4995293;28;20066;-86
2021/01/27 09:22:02;;;;;;;65.97;45.00;;;51.90;2227.20;;;;;;4994497;28;20482;-86
2021/01/27 09:24:40;;;;;;;71.97;46.50;;;51.90;2227.20;;;;;;4994794;28;20073;-88
2021/01/27 09:27:33;;;;;;;60.40;38.88;;;51.70;2227.20;;;;;;4996271;28;20414;-88
2021/01/27 09:30:11;;;;;;;26.20;17.67;;;51.90;2227.20;;;;;;4991344;28;20034;-86
2021/01/27 09:32:37;;;;;;;37.40;24.92;;;51.90;2227.20;;;;;;4995429;28;20491;-88
2021/01/27 09:35:09;;;;;;;48.67;29.27;;;51.90;2227.20;;;;;;4995652;28;20038;-88
2021/01/27 09:37:37;;;;;;;61.08;36.35;;;51.90;2227.20;;;;;;4995142;28;20073;-87
2021/01/27 09:40:13;;;;;;;61.97;37.97;;;51.90;2227.20;;;;;;4995937;28;20026;-88
2021/01/27 09:42:39;;;;;;;65.35;40.97;;;51.90;2227.20;;;;;;4993165;28;20122;-88
2021/01/27 09:45:10;;;;;;;49.80;30.77;;;76.90;2227.20;;;;;;4994505;28;20026;-90
2021/01/27 09:47:42;;;;;;;46.60;27.77;;;51.80;2227.20;;;;;;4993725;28;20029;-87
2021/01/27 09:50:09;;;;;;;41.28;28.45;;;51.80;2227.20;;;;;;4994961;28;20022;-87
2021/01/27 09:52:35;;;;;;;39.83;25.67;;;51.90;2227.20;;;;;;4993801;28;20085;-87
2021/01/27 09:55:14;;;;;;;61.95;42.33;;;51.90;2227.20;;;;;;4994658;28;20057;-87
2021/01/27 09:57:42;;;;;;;64.25;44.85;;;51.90;2227.20;;;;;;4995107;28;20034;-89
2021/01/27 10:00:23;;;;;;;43.63;29.45;;;51.90;2227.20;;;;;;4994952;28;20030;-87
2021/01/27 10:02:48;;;;;;;55.95;34.67;;;52.00;2227.20;;;;;;4995093;28;20438;-86
2021/01/27 10:05:40;;;;;;;33.67;20.67;;;51.90;2227.20;;;;;;4994965;28;20042;-87
2021/01/27 10:08:18;;;;;;;66.10;40.72;;;51.90;2227.20;;;;;;5000278;28;20027;-86
2021/01/27 10:10:44;;;;;;;40.63;27.60;;;51.90;2227.20;;;;;;4999006;28;20210;-89
2021/01/27 10:13:13;;;;;;;44.70;34.88;;;51.90;2227.20;;;;;;4994621;28;20430;-89
2021/01/27 10:15:40;;;;;;;61.38;48.72;;;52.00;2227.20;;;;;;4994291;28;20081;-88
2021/01/27 10:18:11;;;;;;;36.42;25.85;;;52.10;2227.20;;;;;;4993984;28;20125;-88
2021/01/27 10:20:41;;;;;;;34.22;22.38;;;52.10;2227.20;;;;;;4992508;28;20034;-91
2021/01/27 10:23:13;;;;;;;42.53;26.45;;;52.10;2227.20;;;;;;4994265;28;20077;-87
2021/01/27 10:25:45;;;;;;;39.80;27.87;;;52.10;2227.20;;;;;;4993096;28;20433;-85
2021/01/27 10:28:24;;;;;;;41.90;26.63;;;76.80;2227.20;;;;;;4994062;28;20026;-83
2021/01/27 10:31:00;;;;;;;27.25;19.02;;;76.80;2227.20;;;;;;4993840;28;20462;-86
2021/01/27 10:33:52;;;;;;;38.25;25.58;;;76.90;2227.20;;;;;;4993921;28;20152;-86
2021/01/27 10:36:38;;;;;;;46.25;29.05;;;76.80;2176.00;;;;;;4994248;28;20030;-89
2021/01/27 10:39:29;;;;;;;26.42;17.17;;;52.10;2176.00;;;;;;4994351;28;20474;-88
2021/01/27 10:42:15;;;;;;;45.60;23.40;;;52.10;2124.80;;;;;;4994079;28;20034;-84
2021/01/27 10:44:42;;;;;;;29.15;17.35;;;52.10;2150.40;;;;;;4979681;28;20034;-89
2021/01/27 10:47:08;;;;;;;22.80;17.17;;;52.00;2201.60;;;;;;4994278;28;20117;-87
2021/01/27 10:49:47;;;;;;;36.00;23.48;;;52.00;2176.00;;;;;;4994150;28;20455;-89
2021/01/27 10:52:26;;;;;;;70.22;37.65;;;52.10;2150.40;;;;;;4993362;28;20028;-88
2021/01/27 10:54:55;;;;;;;57.58;33.45;;;52.10;2176.00;;;;;;4994164;28;20022;-87
2021/01/27 10:57:21;;;;;;;38.63;23.95;;;52.10;2201.60;;;;;;4993768;28;20037;-87
2021/01/27 10:59:47;;;;;;;45.13;26.67;;;52.00;2201.60;;;;;;4993443;28;20113;-88
2021/01/27 11:02:13;;;;;;;49.70;29.27;;;51.90;2227.20;;;;;;4993573;28;20050;-86
2021/01/27 11:04:39;;;;;;;55.08;33.35;;;52.00;2227.20;;;;;;4996083;28;20113;-87
2021/01/27 11:07:05;;;;;;;31.98;22.23;;;51.90;2227.20;;;;;;4997978;28;20182;-84
2021/01/27 11:09:31;;;;;;;45.83;30.40;;;51.80;2227.20;;;;;;4997293;28;20477;-83
2021/01/27 11:11:57;;;;;;;36.83;24.52;;;51.90;2227.20;;;;;;4996878;28;20022;-81
2021/01/27 11:14:24;;;;;;;35.85;27.00;;;51.50;2227.20;;;;;;4997556;28;20030;-86
2021/01/27 11:16:50;;;;;;;32.63;23.45;;;51.50;2227.20;;;;;;4997554;28;20031;-87
2021/01/27 11:19:16;;;;;;;142.05;66.07;;;51.40;2227.20;;;;;;4997700;28;20027;-88
2021/01/27 11:21:42;;;;;;;55.10;32.80;;;51.50;2227.20;;;;;;4997609;28;20030;-86
2021/01/27 11:24:08;;;;;;;33.70;22.83;;;51.50;2227.20;;;;;;4997621;28;20030;-85
2021/01/27 11:26:35;;;;;;;50.92;31.48;;;51.20;2227.20;;;;;;4997066;28;20042;-88
2021/01/27 11:29:02;;;;;;;29.95;22.45;;;51.40;2227.20;;;;;;4997471;28;20026;-86
2021/01/27 11:31:29;;;;;;;22.40;13.90;;;51.60;2227.20;;;;;;4997476;28;20027;-85
2021/01/27 11:33:55;;;;;;;34.53;23.10;;;51.60;2227.20;;;;;;4997207;28;20034;-87
2021/01/27 11:36:23;;;;;;;27.05;18.30;;;51.20;2227.20;;;;;;4997368;28;20034;-87
2021/01/27 11:38:50;;;;;;;53.70;28.67;;;51.80;2227.20;;;;;;4997168;28;20032;-88
2021/01/27 11:41:17;;;;;;;72.63;42.33;;;51.80;2227.20;;;;;;4996746;28;20525;-88
2021/01/27 11:43:43;;;;;;;29.30;18.20;;;51.90;2227.20;;;;;;4997134;28;20411;-83
2021/01/27 11:46:10;;;;;;;51.40;32.13;;;51.90;2227.20;;;;;;4996907;28;20031;-86
2021/01/27 11:48:37;;;;;;;54.28;31.55;;;51.90;2227.20;;;;;;4996181;28;20026;-86
2021/01/27 11:51:04;;;;;;;43.92;27.23;;;52.00;2227.20;;;;;;4996782;28;20117;-85
2021/01/27 11:53:29;;;;;;;32.38;18.40;;;51.90;2227.20;;;;;;4996465;28;20029;-86
2021/01/27 11:55:56;;;;;;;44.85;28.52;;;51.90;2227.20;;;;;;4997202;28;20373;-85
2021/01/27 11:58:22;;;;;;;54.45;31.65;;;51.70;2227.20;;;;;;4996266;28;20023;-83
2021/01/27 12:00:48;;;;;;;31.05;22.60;;;51.60;2227.20;;;;;;4995934;28;20473;-86
2021/01/27 12:03:14;;;;;;;31.17;22.25;;;51.30;2227.20;;;;;;4996616;28;20118;-83
2021/01/27 12:05:40;;;;;;;30.45;20.45;;;51.20;2227.20;;;;;;4996573;28;20038;-86
2021/01/27 12:08:06;;;;;;;46.47;31.95;;;26.50;2201.60;;;;;;4995698;28;20033;-85
2021/01/27 12:10:32;;;;;;;39.05;25.50;;;26.50;2201.60;;;;;;4996402;28;20034;-86
2021/01/27 12:12:58;;;;;;;39.35;23.40;;;26.40;2201.60;;;;;;4996316;28;20026;-84
2021/01/27 12:15:30;;;;;;;18.70;13.98;;;26.40;2201.60;;;;;;4993565;28;20471;-86
2021/01/27 12:18:00;;;;;;;25.25;18.30;;;26.50;2201.60;;;;;;4980346;28;20035;-85
2021/01/27 12:20:27;;;;;;;32.70;22.35;;;26.40;2201.60;;;;;;4963050;28;20358;-86
2021/01/27 12:22:54;;;;;;;36.58;23.80;;;26.40;2201.60;;;;;;4995966;28;20026;-85
2021/01/27 12:25:20;;;;;;;35.60;20.67;;;26.30;2201.60;;;;;;4995885;28;20031;-87
2021/01/27 12:27:51;;;;;;;43.63;25.63;;;26.30;2201.60;;;;;;4996013;28;20044;-84
2021/01/27 12:30:21;;;;;;;36.92;23.77;;;26.30;2201.60;;;;;;4996069;28;20023;-85
2021/01/27 12:33:30;;;;;;;33.28;21.45;;;26.30;2201.60;;;;;;4981106;28;20094;-85
2021/01/27 12:36:06;;;;;;;38.17;23.85;;;26.40;2201.60;;;;;;4995571;28;20026;-85
2021/01/27 12:38:47;;;;;;;45.50;28.15;;;26.30;2201.60;;;;;;4996980;28;20030;-85
2021/01/27 12:41:18;;;;;;;28.00;19.13;;;26.20;2201.60;;;;;;4979796;28;20034;-85
2021/01/27 12:43:43;;;;;;;32.58;23.25;;;26.30;2201.60;;;;;;4994943;28;20038;-78
2021/01/27 12:46:09;;;;;;;27.95;19.73;;;26.30;2201.60;;;;;;4995089;28;20027;-79
2021/01/27 12:48:36;;;;;;;45.72;29.48;;;26.40;2201.60;;;;;;4995383;28;20117;-81
2021/01/27 12:51:02;;;;;;;32.95;22.30;;;26.50;2201.60;;;;;;4993776;28;20022;-84
2021/01/27 12:53:28;;;;;;;28.45;19.10;;;51.20;2227.20;;;;;;4995731;28;20033;-86
2021/01/27 12:55:54;;;;;;;33.17;20.75;;;51.40;2227.20;;;;;;4994331;28;20117;-85
2021/01/27 12:58:20;;;;;;;27.55;18.55;;;51.50;2227.20;;;;;;4995378;28;20057;-87
2021/01/27 13:00:46;;;;;;;20.52;14.13;;;51.60;2227.20;;;;;;4995394;28;20058;-87
2021/01/27 13:03:12;;;;;;;31.75;19.83;;;51.70;2176.00;;;;;;4996897;28;20033;-86
2021/01/27 13:05:38;;;;;;;31.63;23.15;;;52.10;2150.40;;;;;;4995851;28;20034;-88
2021/01/27 13:08:05;;;;;;;35.70;21.63;;;52.10;2150.40;;;;;;4995406;28;20028;-87
2021/01/27 13:10:31;;;;;;;45.58;24.70;;;52.00;2227.20;;;;;;4995355;28;20076;-89
2021/01/27 13:12:59;;;;;;;36.30;20.23;;;52.00;2227.20;;;;;;4996763;28;20037;-88
2021/01/27 13:15:25;;;;;;;28.83;15.25;;;52.00;2227.20;;;;;;4995742;28;20034;-87
2021/01/27 13:17:52;;;;;;;29.92;17.52;;;51.90;2227.20;;;;;;4995285;28;20033;-87
2021/01/27 13:20:22;;;;;;;25.15;15.75;;;51.50;2227.20;;;;;;4994015;28;20057;-87
2021/01/27 13:22:48;;;;;;;27.63;16.90;;;51.80;2227.20;;;;;;4996017;28;20061;-88
2021/01/27 13:25:18;;;;;;;30.17;18.10;;;51.80;2227.20;;;;;;4994295;28;20478;-88
2021/01/27 13:27:44;;;;;;;26.13;16.92;;;51.70;2227.20;;;;;;4997525;28;20027;-87
2021/01/27 13:30:12;;;;;;;24.77;15.85;;;51.60;2227.20;;;;;;4997331;28;20425;-87
2021/01/27 13:33:17;;;;;;;24.98;16.23;;;51.60;2227.20;;;;;;4995981;28;20435;-87
2021/01/27 13:35:44;;;;;;;21.13;14.80;;;51.50;2227.20;;;;;;4994816;28;20027;-89
2021/01/27 13:38:13;;;;;;;27.30;18.55;;;51.50;2227.20;;;;;;4994934;28;20018;-88
2021/01/27 13:40:39;;;;;;;32.38;19.05;;;51.60;2227.20;;;;;;4994535;28;20030;-86
2021/01/27 13:43:05;;;;;;;36.13;21.52;;;51.70;2227.20;;;;;;4995036;28;20038;-87
2021/01/27 13:45:31;;;;;;;25.80;15.55;;;52.00;2201.60;;;;;;4994474;28;20045;-86
2021/01/27 13:47:59;;;;;;;29.23;16.63;;;76.90;2150.40;;;;;;4994888;28;20402;-87
2021/01/27 13:50:25;;;;;;;17.67;10.45;;;77.00;2124.80;;;;;;4995663;28;20034;-88
2021/01/27 13:52:51;;;;;;;32.95;27.23;;;26.20;2073.60;;;;;;4994785;28;20371;-90
2021/01/27 13:55:18;;;;;;;41.92;31.08;;;77.40;2099.20;;;;;;4994989;28;20045;-89
2021/01/27 13:57:45;;;;;;;56.30;16.27;;;77.20;2124.80;;;;;;4994771;28;20125;-88
2021/01/27 14:00:14;;;;;;;98.93;19.42;;;77.00;2099.20;;;;;;4994063;28;20061;-87
2021/01/27 14:02:40;;;;;;;34.78;21.95;;;76.80;2124.80;;;;;;4994138;28;20046;-86
2021/01/27 14:05:07;;;;;;;42.72;25.10;;;52.10;2176.00;;;;;;4994505;28;20376;-90
2021/01/27 14:07:33;;;;;;;33.67;20.85;;;52.00;2176.00;;;;;;4994238;28;20033;-87
2021/01/27 14:09:59;;;;;;;25.42;15.85;;;51.90;2176.00;;;;;;4994030;28;20026;-87
2021/01/27 14:12:26;;;;;;;21.45;15.07;;;51.80;2176.00;;;;;;4994353;28;20026;-87
2021/01/27 14:14:52;;;;;;;24.52;16.15;;;52.10;2124.80;;;;;;4994190;28;20018;-87
2021/01/27 14:17:18;;;;;;;30.50;18.77;;;76.90;2099.20;;;;;;4994468;28;20023;-87
2021/01/27 14:19:44;;;;;;;48.08;27.90;;;76.80;2124.80;;;;;;4994130;28;20022;-87
2021/01/27 14:22:09;;;;;;;110.50;62.20;;;52.10;2099.20;;;;;;4987987;28;20466;-87
2021/01/27 14:24:35;;;;;;;49.65;26.25;;;52.00;2150.40;;;;;;4988384;28;20026;-87
2021/01/27 14:27:01;;;;;;;27.80;16.48;;;51.90;2124.80;;;;;;4988294;28;20467;-86
2021/01/27 14:29:27;;;;;;;30.00;19.77;;;51.80;2099.20;;;;;;4987877;28;20034;-86
2021/01/27 14:31:53;;;;;;;21.20;15.20;;;51.80;2150.40;;;;;;4987930;28;20029;-87
2021/01/27 14:34:19;;;;;;;42.28;20.88;;;51.70;2150.40;;;;;;4990177;28;20022;-88
2021/01/27 14:36:45;;;;;;;33.42;20.67;;;51.70;2176.00;;;;;;4987092;28;20033;-87
2021/01/27 14:39:11;;;;;;;42.95;24.60;;;51.60;2150.40;;;;;;4987380;28;20022;-86
2021/01/27 14:41:39;;;;;;;54.75;30.75;;;51.60;2201.60;;;;;;4986953;28;20030;-86
2021/01/27 14:44:06;;;;;;;37.20;22.17;;;51.60;2201.60;;;;;;4985634;28;20029;-87
2021/01/27 14:46:35;;;;;;;29.90;19.33;;;51.60;2176.00;;;;;;4987391;28;20038;-87
2021/01/27 14:49:01;;;;;;;86.03;48.42;;;51.50;2227.20;;;;;;4988344;28;20109;-87
2021/01/27 14:51:27;;;;;;;80.65;46.50;;;51.40;2201.60;;;;;;4987493;28;20133;-87
2021/01/27 14:53:53;;;;;;;41.78;26.92;;;51.40;2227.20;;;;;;4988760;28;20442;-87
2021/01/27 14:56:19;;;;;;;26.15;16.83;;;51.40;2227.20;;;;;;4987110;28;20441;-87
2021/01/27 14:58:44;;;;;;;36.40;24.13;;;51.30;2227.20;;;;;;4987640;28;20445;-86
2021/01/27 15:01:10;;;;;;;30.42;18.00;;;51.40;2227.20;;;;;;4987220;28;20042;-86
2021/01/27 15:03:36;;;;;;;28.52;18.20;;;51.30;2227.20;;;;;;4987460;28;20105;-86
2021/01/27 15:06:02;;;;;;;40.15;23.85;;;51.30;2227.20;;;;;;4986446;28;20030;-87
2021/01/27 15:15:56;;;;;;;47.70;23.13;;;26.50;2201.60;;;;;;4990375;28;20082;-84
2021/01/27 15:32:46;;;;;;;47.63;27.50;;;26.50;2201.60;;;;;;4991390;28;20118;-84
2021/01/27 15:38:15;;;;;;;;;;;26.40;2201.60;;;;;;4974074;28;20640;-85
2021/01/27 15:40:42;;;;;;;40.33;26.35;;;26.50;2201.60;;;;;;4972848;28;20399;-83
2021/01/27 15:43:14;;;;;;;43.33;25.02;;;25.80;2201.60;;;;;;4973567;28;20033;-87
2021/01/27 15:45:41;;;;;;;;;;;26.50;2201.60;;;;;;4973528;28;20081;-85
2021/01/27 15:48:07;;;;;;;38.85;25.30;;;26.50;2201.60;;;;;;4973665;28;20362;-88
2021/01/27 15:50:47;;;;;;;29.20;20.10;;;26.40;2201.60;;;;;;4974750;28;20558;-89
2021/01/27 15:53:14;;;;;;;30.40;19.67;;;0.80;2201.60;;;;;;4977206;28;20155;-87
2021/01/27 15:55:40;;;;;;;27.00;17.58;;;51.40;2227.20;;;;;;4977224;28;20027;-89
2021/01/27 15:58:07;;;;;;;25.92;16.75;;;26.40;2201.60;;;;;;4976843;28;20500;-86
2021/01/27 16:00:34;;;;;;;40.00;24.73;;;26.50;2201.60;;;;;;4976797;28;20118;-87
2021/01/27 16:03:03;;;;;;;37.72;22.85;;;26.40;2201.60;;;;;;4961457;28;20030;-85
2021/01/27 16:05:31;;;;;;;34.17;20.63;;;26.50;2201.60;;;;;;4977866;28;20035;-85
2021/01/27 16:07:58;;;;;;;30.13;20.10;;;26.50;2201.60;;;;;;4961009;28;20019;-88
2021/01/27 16:10:26;;;;;;;27.75;16.35;;;26.50;2201.60;;;;;;4960733;28;20084;-86
2021/01/27 16:12:52;;;;;;;31.02;20.67;;;26.40;2201.60;;;;;;4960710;28;20434;-88
2021/01/27 16:15:22;;;;;;;23.70;16.30;;;26.30;2201.60;;;;;;4961177;28;20035;-85
2021/01/27 16:17:52;;;;;;;32.40;20.65;;;26.30;2201.60;;;;;;4960977;28;20082;-86
2021/01/27 16:23:52;;;;;;;33.88;22.48;;;26.30;2201.60;;;;;;5036400;23;20418;-82
2021/01/27 16:26:18;;;;;;;38.25;24.55;;;26.30;2201.60;;;;;;4962342;28;20068;-83
2021/01/27 16:28:45;;;;;;;43.10;25.05;;;26.30;2201.60;;;;;;4978647;28;20050;-85
2021/01/27 16:31:11;;;;;;;56.42;33.28;;;26.30;2201.60;;;;;;4979255;28;20057;-84
2021/01/27 16:33:58;;;;;;;42.30;27.30;;;26.30;2201.60;;;;;;4979293;28;20065;-87
2021/01/27 16:36:26;;;;;;;46.35;28.13;;;26.50;2201.60;;;;;;4979883;28;20029;-86
2021/01/27 16:38:52;;;;;;;35.70;23.77;;;26.50;2201.60;;;;;;4979238;28;20030;-85
2021/01/27 16:41:18;;;;;;;44.65;27.02;;;26.30;2201.60;;;;;;4979326;28;20478;-79
2021/01/27 16:43:44;;;;;;;52.15;32.17;;;26.30;2201.60;;;;;;4977725;28;20062;-81
2021/01/27 16:46:11;;;;;;;36.83;23.15;;;26.30;2201.60;;;;;;4979273;28;20030;-81
2021/01/27 16:48:37;;;;;;;46.03;27.02;;;26.30;2201.60;;;;;;4979104;28;20026;-83
2021/01/27 16:51:04;;;;;;;40.63;25.20;;;26.40;2201.60;;;;;;4980287;28;20023;-84
2021/01/27 16:53:32;;;;;;;34.90;21.25;;;26.30;2201.60;;;;;;4981242;28;20033;-84
2021/01/27 16:56:25;;;;;;;44.97;28.60;;;26.30;2201.60;;;;;;4978084;28;20026;-84
2021/01/27 16:58:51;;;;;;;29.53;19.67;;;26.40;2201.60;;;;;;4978873;28;20122;-83
2021/01/27 17:01:17;;;;;;;30.50;19.25;;;26.40;2201.60;;;;;;4978722;28;20116;-83
2021/01/27 17:03:43;;;;;;;44.50;30.58;;;26.30;2201.60;;;;;;4978762;28;20037;-85
2021/01/27 17:06:14;;;;;;;59.92;50.15;;;26.40;2201.60;;;;;;4979219;28;20052;-87
2021/01/27 17:08:56;;;;;;;44.40;30.33;;;26.40;2201.60;;;;;;4980660;28;20408;-84
2021/01/27 17:11:24;;;;;;;46.78;28.65;;;26.40;2201.60;;;;;;4964687;28;20425;-87